createdAt,value
2019-05-18T00:02:12.991Z,16.10
2019-05-18T00:06:20.996Z,16.21
2019-05-18T00:10:28.562Z,16.40
2019-05-18T00:14:37.156Z,16.27
2019-05-18T00:18:45.041Z,16.30
2019-05-18T00:22:53.275Z,16.25
2019-05-18T00:27:01.714Z,16.24
2019-05-18T00:31:10.440Z,16.20
2019-05-18T00:35:18.061Z,16.24
2019-05-18T00:39:26.229Z,16.21
2019-05-18T00:43:33.874Z,16.30
2019-05-18T00:47:42.580Z,16.36
2019-05-18T00:51:50.733Z,16.42
2019-05-18T00:55:58.426Z,16.33
2019-05-18T01:00:07.742Z,16.43
2019-05-18T01:04:15.415Z,16.41
2019-05-18T01:08:23.299Z,16.45
2019-05-18T01:12:31.207Z,16.40
2019-05-18T01:16:39.096Z,16.43
2019-05-18T01:20:47.735Z,16.50
2019-05-18T01:24:55.937Z,16.44
2019-05-18T01:29:04.895Z,16.44
2019-05-18T01:33:13.219Z,16.45
2019-05-18T01:37:20.909Z,16.35
2019-05-18T01:41:28.851Z,16.38
2019-05-18T01:45:36.829Z,16.34
2019-05-18T01:49:44.379Z,16.23
2019-05-18T01:53:52.896Z,16.20
2019-05-18T01:58:01.021Z,16.11
2019-05-18T02:02:08.416Z,16.37
2019-05-18T02:06:16.400Z,16.44
2019-05-18T02:10:24.540Z,16.36
2019-05-18T02:14:32.135Z,16.49
2019-05-18T02:18:40.448Z,16.39
2019-05-18T02:22:48.511Z,16.31
2019-05-18T02:26:56.534Z,16.28
2019-05-18T02:31:04.542Z,16.25
2019-05-18T02:35:12.242Z,16.32
2019-05-18T02:39:20.734Z,16.31
2019-05-18T02:43:28.653Z,16.31
2019-05-18T02:47:37.181Z,16.38
2019-05-18T02:51:45.058Z,16.31
2019-05-18T02:55:53.439Z,16.34
2019-05-18T03:00:02.378Z,16.44
2019-05-18T03:04:10.348Z,16.30
2019-05-18T03:08:18.360Z,16.42
2019-05-18T03:12:26.362Z,16.47
2019-05-18T03:16:35.137Z,16.54
2019-05-18T03:20:43.650Z,16.59
2019-05-18T03:24:51.858Z,16.57
2019-05-18T03:29:00.356Z,16.64
2019-05-18T03:33:08.485Z,16.62
2019-05-18T03:37:15.935Z,16.62
2019-05-18T03:41:23.932Z,16.70
2019-05-18T03:45:32.295Z,16.72
2019-05-18T03:49:40.066Z,16.69
2019-05-18T03:53:48.123Z,16.75
2019-05-18T03:57:56.207Z,16.75
2019-05-18T04:02:03.691Z,16.72
2019-05-18T04:06:11.686Z,16.77
2019-05-18T04:10:26.579Z,16.88
2019-05-18T04:14:35.129Z,16.88
2019-05-18T04:18:43.238Z,16.87
2019-05-18T04:22:51.134Z,16.96
2019-05-18T04:26:59.365Z,17.10
2019-05-18T04:31:07.032Z,17.10
2019-05-18T04:35:15.306Z,17.14
2019-05-18T04:39:23.706Z,17.07
2019-05-18T04:43:31.430Z,17.17
2019-05-18T04:47:39.585Z,17.15
2019-05-18T04:51:47.558Z,17.23
2019-05-18T04:55:55.847Z,17.27
2019-05-18T05:00:03.991Z,17.25
2019-05-18T05:04:11.382Z,17.27
2019-05-18T05:08:19.817Z,17.36
2019-05-18T05:12:27.817Z,17.59
2019-05-18T05:16:35.648Z,17.59
2019-05-18T05:20:44.420Z,17.68
2019-05-18T05:24:52.294Z,17.73
2019-05-18T05:29:00.287Z,17.91
2019-05-18T05:33:08.186Z,17.98
2019-05-18T05:37:16.237Z,18.05
2019-05-18T05:41:24.242Z,18.17
2019-05-18T05:45:32.235Z,18.17
2019-05-18T05:49:39.851Z,18.21
2019-05-18T05:53:48.408Z,18.63
2019-05-18T05:57:55.946Z,18.63
2019-05-18T06:02:05.140Z,18.90
2019-05-18T06:06:13.472Z,19.17
2019-05-18T06:10:21.282Z,19.37
2019-05-18T06:14:29.267Z,19.45
2019-05-18T06:18:37.620Z,19.67
2019-05-18T06:22:45.163Z,19.82
2019-05-18T06:26:53.517Z,20.02
2019-05-18T06:31:01.413Z,20.17
2019-05-18T06:35:09.561Z,20.40
2019-05-18T06:39:17.898Z,20.42
2019-05-18T06:43:25.286Z,20.50
2019-05-18T06:47:33.278Z,20.61
2019-05-18T06:51:41.261Z,20.71
2019-05-18T06:55:49.225Z,21.18
2019-05-18T06:59:57.405Z,21.52
2019-05-18T07:04:05.060Z,21.39
2019-05-18T07:08:13.287Z,21.49
2019-05-18T07:12:21.082Z,21.70
2019-05-18T07:16:29.217Z,21.59
2019-05-18T07:20:37.647Z,21.69
2019-05-18T07:24:45.445Z,22.08
2019-05-18T07:28:53.563Z,21.82
2019-05-18T07:33:01.073Z,21.90
2019-05-18T07:37:08.836Z,21.82
2019-05-18T07:41:16.837Z,21.79
2019-05-18T07:45:25.323Z,22.25
2019-05-18T07:49:33.657Z,22.23
2019-05-18T07:53:41.832Z,22.67
2019-05-18T07:57:49.581Z,22.74
2019-05-18T08:01:57.799Z,22.61
2019-05-18T08:06:05.700Z,22.81
2019-05-18T08:10:13.574Z,22.94
2019-05-18T08:14:21.613Z,22.82
2019-05-18T08:18:29.338Z,23.40
2019-05-18T08:22:38.059Z,23.26
2019-05-18T08:26:46.217Z,23.95
2019-05-18T08:30:53.887Z,24.47
2019-05-18T08:35:01.537Z,24.76
2019-05-18T08:39:09.244Z,25.03
2019-05-18T08:43:17.021Z,25.03
2019-05-18T08:47:25.302Z,25.85
2019-05-18T08:51:33.142Z,25.43
2019-05-18T08:55:41.104Z,25.82
2019-05-18T08:59:49.162Z,25.92
2019-05-18T09:03:58.439Z,25.52
2019-05-18T09:08:06.519Z,26.09
2019-05-18T09:12:14.101Z,26.09
2019-05-18T09:16:23.151Z,26.74
2019-05-18T09:20:31.163Z,26.93
2019-05-18T09:24:38.760Z,27.28
2019-05-18T09:28:47.152Z,27.41
2019-05-18T09:32:54.840Z,27.18
2019-05-18T09:37:03.341Z,27.18
2019-05-18T09:41:11.323Z,27.04
2019-05-18T09:45:19.580Z,28.06
2019-05-18T09:49:27.075Z,27.99
2019-05-18T09:53:35.513Z,27.99
2019-05-18T09:57:43.072Z,27.96
2019-05-18T10:01:51.298Z,27.95
2019-05-18T10:05:59.815Z,27.68
2019-05-18T10:10:07.740Z,28.05
2019-05-18T10:14:15.826Z,27.34
2019-05-18T10:18:23.481Z,27.34
2019-05-18T10:22:31.477Z,27.47
2019-05-18T10:26:39.029Z,27.71
2019-05-18T10:30:48.110Z,27.49
2019-05-18T10:34:55.873Z,27.49
2019-05-18T10:39:05.330Z,27.54
2019-05-18T10:43:13.334Z,27.84
2019-05-18T10:47:28.375Z,27.44
2019-05-18T10:51:36.916Z,27.35
2019-05-18T10:55:44.905Z,28.03
2019-05-18T10:59:52.769Z,28.03
2019-05-18T11:04:00.251Z,28.49
2019-05-18T11:08:08.015Z,28.52
2019-05-18T11:12:16.445Z,28.14
2019-05-18T11:16:24.018Z,27.77
2019-05-18T11:20:32.875Z,27.71
2019-05-18T11:24:40.460Z,27.73
2019-05-18T11:28:48.645Z,28.30
2019-05-18T11:32:56.706Z,27.95
2019-05-18T11:37:04.301Z,27.33
2019-05-18T11:41:12.896Z,27.56
2019-05-18T11:45:21.452Z,28.18
2019-05-18T11:49:29.293Z,28.52
2019-05-18T11:53:37.447Z,28.84
2019-05-18T11:57:45.130Z,28.87
2019-05-18T12:01:53.570Z,28.36
2019-05-18T12:06:01.571Z,27.61
2019-05-18T12:10:10.037Z,27.61
2019-05-18T12:14:18.210Z,28.12
2019-05-18T12:18:25.986Z,28.64
2019-05-18T12:22:35.515Z,29.32
2019-05-18T12:26:43.583Z,29.94
2019-05-18T12:30:51.756Z,30.46
2019-05-18T12:34:59.523Z,30.53
2019-05-18T12:39:08.075Z,30.45
2019-05-18T12:43:15.794Z,29.81
2019-05-18T12:47:23.863Z,29.04
2019-05-18T12:51:31.450Z,28.23
2019-05-18T12:55:39.611Z,28.41
2019-05-18T12:59:47.288Z,29.06
2019-05-18T13:03:54.759Z,29.41
2019-05-18T13:08:02.641Z,29.80
2019-05-18T13:12:11.805Z,29.69
2019-05-18T13:16:19.710Z,29.60
2019-05-18T13:20:27.974Z,29.05
2019-05-18T13:24:44.801Z,28.94
2019-05-18T13:28:47.319Z,28.79
2019-05-18T13:32:54.950Z,28.33
2019-05-18T13:37:02.739Z,28.31
2019-05-18T13:41:10.411Z,28.41
2019-05-18T13:45:18.482Z,28.54
2019-05-18T13:49:26.568Z,28.65
2019-05-18T13:53:34.769Z,28.70
2019-05-18T13:57:42.335Z,28.46
2019-05-18T14:01:50.415Z,28.48
2019-05-18T14:05:58.468Z,28.30
2019-05-18T14:10:07.041Z,28.31
2019-05-18T14:14:15.105Z,28.21
2019-05-18T14:18:22.891Z,27.98
2019-05-18T14:22:30.824Z,27.77
2019-05-18T14:26:39.246Z,27.43
2019-05-18T14:30:46.724Z,27.39
2019-05-18T14:34:55.589Z,27.39
2019-05-18T14:39:03.564Z,27.28
2019-05-18T14:43:11.801Z,26.88
2019-05-18T14:47:20.452Z,26.57
2019-05-18T14:51:28.797Z,26.59
2019-05-18T14:55:36.875Z,26.83
2019-05-18T14:59:44.549Z,26.78
2019-05-18T15:03:52.609Z,26.79
2019-05-18T15:08:00.759Z,26.79
2019-05-18T15:12:08.323Z,26.76
2019-05-18T15:16:16.406Z,26.76
2019-05-18T15:20:24.591Z,26.68
2019-05-18T15:24:32.255Z,26.68
2019-05-18T15:28:40.680Z,26.70
2019-05-18T15:32:48.360Z,26.70
2019-05-18T15:36:56.405Z,26.58
2019-05-18T15:41:04.235Z,26.50
2019-05-18T15:45:12.548Z,26.29
2019-05-18T15:49:20.555Z,26.28
2019-05-18T15:53:28.470Z,26.18
2019-05-18T15:57:37.189Z,26.20
2019-05-18T16:01:45.647Z,26.21
2019-05-18T16:05:53.162Z,26.12
2019-05-18T16:10:01.145Z,26.07
2019-05-18T16:14:09.177Z,26.01
2019-05-18T16:18:17.219Z,25.94
2019-05-18T16:22:25.210Z,25.89
2019-05-18T16:26:32.995Z,25.89
2019-05-18T16:30:41.027Z,25.77
2019-05-18T16:34:48.722Z,25.63
2019-05-18T16:38:57.053Z,25.55
2019-05-18T16:43:05.370Z,25.32
2019-05-18T16:47:13.077Z,25.17
2019-05-18T16:51:21.716Z,25.12
2019-05-18T16:55:30.170Z,25.02
2019-05-18T16:59:38.239Z,25.04
2019-05-18T17:03:46.481Z,25.00
2019-05-18T17:07:54.386Z,24.91
2019-05-18T17:12:02.673Z,24.78
2019-05-18T17:16:11.823Z,24.62
2019-05-18T17:20:19.614Z,24.62
2019-05-18T17:24:27.660Z,24.58
2019-05-18T17:28:35.783Z,24.58
2019-05-18T17:32:43.997Z,24.15
2019-05-18T17:36:52.625Z,24.15
2019-05-18T17:41:00.826Z,23.55
2019-05-18T17:45:08.909Z,23.30
2019-05-18T17:49:26.380Z,23.14
2019-05-18T17:53:26.573Z,23.14
2019-05-18T17:57:35.251Z,22.90
2019-05-18T18:01:43.020Z,22.83
2019-05-18T18:05:50.802Z,22.75
2019-05-18T18:09:58.598Z,22.62
2019-05-18T18:14:07.114Z,22.49
2019-05-18T18:18:15.541Z,22.25
2019-05-18T18:22:23.905Z,22.12
2019-05-18T18:26:32.389Z,21.87
2019-05-18T18:30:40.620Z,21.81
2019-05-18T18:34:48.426Z,21.79
2019-05-18T18:38:56.926Z,21.67
2019-05-18T18:43:05.051Z,21.66
2019-05-18T18:47:12.648Z,21.60
2019-05-18T18:51:20.256Z,21.48
2019-05-18T18:55:27.920Z,21.44
2019-05-18T18:59:36.011Z,21.48
2019-05-18T19:03:44.361Z,21.55
2019-05-18T19:07:52.160Z,21.42
2019-05-18T19:12:00.137Z,21.53
2019-05-18T19:16:08.341Z,21.65
2019-05-18T19:20:16.117Z,21.66
2019-05-18T19:24:24.101Z,21.61
2019-05-18T19:28:31.809Z,21.66
2019-05-18T19:32:40.088Z,21.50
2019-05-18T19:36:47.833Z,21.46
2019-05-18T19:40:56.056Z,21.46
2019-05-18T19:45:04.815Z,21.52
2019-05-18T19:49:12.693Z,21.50
2019-05-18T19:53:20.843Z,21.34
2019-05-18T19:57:29.442Z,21.15
2019-05-18T20:01:37.417Z,20.97
2019-05-18T20:05:44.907Z,20.97
2019-05-18T20:09:53.082Z,20.85
2019-05-18T20:14:01.010Z,20.77
2019-05-18T20:18:08.792Z,20.60
2019-05-18T20:22:16.996Z,20.62
2019-05-18T20:26:24.918Z,20.55
2019-05-18T20:30:33.144Z,20.48
2019-05-18T20:34:41.352Z,20.42
2019-05-18T20:38:49.072Z,20.51
2019-05-18T20:42:57.205Z,20.21
2019-05-18T20:47:05.316Z,19.99
2019-05-18T20:51:12.937Z,19.79
2019-05-18T20:55:20.920Z,19.80
2019-05-18T20:59:28.531Z,19.99
2019-05-18T21:03:36.127Z,20.05
2019-05-18T21:07:44.847Z,19.88
2019-05-18T21:11:52.779Z,19.67
2019-05-18T21:16:01.007Z,19.78
2019-05-18T21:20:09.143Z,19.64
2019-05-18T21:24:17.041Z,19.61
2019-05-18T21:28:25.028Z,19.48
2019-05-18T21:32:32.499Z,19.76
2019-05-18T21:36:40.485Z,19.85
2019-05-18T21:40:48.609Z,19.83
2019-05-18T21:44:56.392Z,19.86
2019-05-18T21:49:04.425Z,19.82
2019-05-18T21:53:12.122Z,19.57
2019-05-18T21:57:20.626Z,19.62
2019-05-18T22:01:29.126Z,19.44
2019-05-18T22:05:37.268Z,19.15
2019-05-18T22:09:46.099Z,19.07
2019-05-18T22:13:54.323Z,19.04
2019-05-18T22:18:04.821Z,19.17
2019-05-18T22:22:13.033Z,19.28
2019-05-18T22:26:21.352Z,19.17
2019-05-18T22:30:28.783Z,19.22
2019-05-18T22:34:36.965Z,19.12
2019-05-18T22:38:44.836Z,19.22
2019-05-18T22:42:52.731Z,19.19
2019-05-18T22:47:00.992Z,19.18
2019-05-18T22:51:08.373Z,19.34
2019-05-18T22:55:16.470Z,19.40
2019-05-18T22:59:24.454Z,19.02
2019-05-18T23:03:32.091Z,18.74
2019-05-18T23:07:40.107Z,18.71
2019-05-18T23:11:47.509Z,18.65
2019-05-18T23:15:55.693Z,18.61
2019-05-18T23:20:03.679Z,18.55
2019-05-18T23:24:12.440Z,18.38
2019-05-18T23:28:20.507Z,18.48
2019-05-18T23:32:28.518Z,18.65
2019-05-18T23:36:36.012Z,18.62
2019-05-18T23:40:43.994Z,18.69
2019-05-18T23:44:51.996Z,18.65
2019-05-18T23:49:10.431Z,18.45
2019-05-18T23:53:09.357Z,18.52
2019-05-18T23:57:17.063Z,18.42
